createdAt,value
2017-11-29T00:02:11.237Z,6.12
2017-11-29T00:04:38.790Z,5.60
2017-11-29T00:07:06.363Z,4.90
2017-11-29T00:09:33.985Z,4.93
2017-11-29T00:12:02.355Z,4.35
2017-11-29T00:14:30.705Z,5.12
2017-11-29T00:16:58.293Z,4.10
2017-11-29T00:19:25.925Z,4.50
2017-11-29T00:21:53.521Z,4.53
2017-11-29T00:24:21.077Z,3.80
2017-11-29T00:26:48.668Z,5.07
2017-11-29T00:29:17.041Z,4.50
2017-11-29T00:31:45.383Z,4.05
2017-11-29T00:34:12.932Z,3.45
2017-11-29T00:36:40.505Z,6.75
2017-11-29T00:39:08.084Z,4.35
2017-11-29T00:41:35.632Z,3.47
2017-11-29T00:44:03.360Z,3.90
2017-11-29T00:46:30.912Z,4.82
2017-11-29T00:48:59.259Z,5.70
2017-11-29T00:51:26.830Z,6.30
2017-11-29T00:53:54.405Z,5.62
2017-11-29T00:56:22.008Z,5.28
2017-11-29T00:58:49.570Z,9.40
2017-11-29T01:01:17.135Z,5.12
2017-11-29T01:03:44.739Z,5.68
2017-11-29T01:06:13.061Z,4.25
2017-11-29T01:08:40.680Z,3.08
2017-11-29T01:11:09.028Z,4.62
2017-11-29T01:13:36.616Z,4.07
2017-11-29T01:16:04.162Z,4.28
2017-11-29T01:18:31.741Z,2.95
2017-11-29T01:20:59.300Z,4.10
2017-11-29T01:23:26.892Z,3.22
2017-11-29T01:25:55.215Z,3.20
2017-11-29T01:28:22.807Z,2.92
2017-11-29T01:30:50.367Z,4.22
2017-11-29T01:33:18.719Z,2.72
2017-11-29T01:35:46.305Z,5.37
2017-11-29T01:38:13.856Z,3.40
2017-11-29T01:40:41.439Z,4.57
2017-11-29T01:43:09.035Z,3.10
2017-11-29T01:45:36.679Z,5.70
2017-11-29T01:48:05.016Z,6.00
2017-11-29T01:50:32.591Z,3.62
2017-11-29T01:53:00.225Z,2.95
2017-11-29T01:55:27.795Z,3.75
2017-11-29T01:57:55.352Z,2.75
2017-11-29T02:00:22.884Z,3.60
2017-11-29T02:02:50.459Z,3.53
2017-11-29T02:05:18.048Z,2.70
2017-11-29T02:07:45.633Z,3.05
2017-11-29T02:10:13.180Z,5.18
2017-11-29T02:12:40.756Z,3.67
2017-11-29T02:15:09.137Z,3.30
2017-11-29T02:17:36.711Z,2.85
2017-11-29T02:20:05.044Z,2.60
2017-11-29T02:22:32.628Z,4.18
2017-11-29T02:25:00.184Z,3.20
2017-11-29T02:27:27.748Z,5.80
2017-11-29T02:29:55.304Z,5.00
2017-11-29T02:32:22.862Z,6.03
2017-11-29T02:34:50.425Z,4.75
2017-11-29T02:37:17.995Z,7.57
2017-11-29T02:39:57.444Z,5.10
2017-11-29T02:42:38.048Z,5.00
2017-11-29T02:45:05.624Z,5.93
2017-11-29T02:47:33.188Z,4.87
2017-11-29T02:50:00.733Z,4.40
2017-11-29T02:52:28.313Z,4.47
2017-11-29T02:54:56.692Z,8.57
2017-11-29T02:57:24.259Z,5.50
2017-11-29T02:59:51.772Z,8.85
2017-11-29T03:02:20.241Z,6.03
2017-11-29T03:04:47.897Z,5.80
2017-11-29T03:07:15.473Z,6.95
2017-11-29T03:09:43.825Z,9.73
2017-11-29T03:12:11.381Z,6.37
2017-11-29T03:14:38.943Z,8.63
2017-11-29T03:17:06.493Z,8.73
2017-11-29T03:19:34.140Z,11.55
2017-11-29T03:22:01.692Z,9.68
2017-11-29T03:24:29.259Z,9.32
2017-11-29T03:26:56.823Z,12.05
2017-11-29T03:29:24.381Z,11.10
2017-11-29T03:32:01.858Z,10.32
2017-11-29T03:34:30.204Z,13.52
2017-11-29T03:36:57.768Z,13.82
2017-11-29T03:39:25.345Z,15.05
2017-11-29T03:41:52.910Z,11.60
2017-11-29T03:44:21.408Z,12.55
2017-11-29T03:46:49.754Z,12.60
2017-11-29T03:49:17.315Z,12.45
2017-11-29T03:51:44.902Z,19.67
2017-11-29T03:54:13.228Z,12.63
2017-11-29T03:56:40.795Z,19.85
2017-11-29T03:59:08.391Z,16.60
2017-11-29T04:01:35.977Z,19.60
2017-11-29T04:04:04.349Z,15.80
2017-11-29T04:06:32.717Z,15.13
2017-11-29T04:09:00.279Z,15.95
2017-11-29T04:11:27.869Z,17.77
2017-11-29T04:13:56.160Z,20.77
2017-11-29T04:16:23.736Z,18.42
2017-11-29T04:18:51.282Z,16.80
2017-11-29T04:21:18.864Z,17.02
2017-11-29T04:23:46.427Z,18.33
2017-11-29T04:26:13.999Z,14.38
2017-11-29T04:28:41.582Z,23.33
2017-11-29T04:31:09.172Z,25.12
2017-11-29T04:33:36.738Z,19.83
2017-11-29T04:36:05.072Z,21.52
2017-11-29T04:38:32.655Z,22.15
2017-11-29T04:41:00.283Z,24.20
2017-11-29T04:43:27.873Z,28.55
2017-11-29T04:45:55.646Z,21.02
2017-11-29T04:48:23.206Z,23.00
2017-11-29T04:50:51.532Z,24.02
2017-11-29T04:53:19.071Z,21.70
2017-11-29T04:55:47.430Z,22.13
2017-11-29T04:58:14.986Z,24.23
2017-11-29T05:00:44.193Z,20.55
2017-11-29T05:03:11.762Z,23.60
2017-11-29T05:05:39.331Z,24.10
2017-11-29T05:08:07.668Z,21.05
2017-11-29T05:10:35.250Z,27.90
2017-11-29T05:13:03.576Z,24.63
2017-11-29T05:15:31.147Z,25.37
2017-11-29T05:17:58.797Z,29.30
2017-11-29T05:20:26.364Z,22.37
2017-11-29T05:22:53.920Z,26.85
2017-11-29T05:25:21.507Z,24.98
2017-11-29T05:27:49.079Z,25.30
2017-11-29T05:30:16.603Z,24.42
2017-11-29T05:32:44.183Z,18.83
2017-11-29T05:35:11.731Z,28.02
2017-11-29T05:37:39.300Z,29.95
2017-11-29T05:40:06.861Z,30.55
2017-11-29T05:42:34.441Z,29.95
2017-11-29T05:45:01.990Z,24.63
2017-11-29T05:47:29.553Z,25.58
2017-11-29T05:49:57.263Z,24.42
2017-11-29T05:52:25.641Z,28.12
2017-11-29T05:54:53.206Z,24.23
2017-11-29T05:57:20.800Z,29.48
2017-11-29T05:59:49.145Z,30.92
2017-11-29T06:02:16.693Z,34.67
2017-11-29T06:04:44.270Z,23.40
2017-11-29T06:07:12.608Z,27.02
2017-11-29T06:09:40.135Z,33.03
2017-11-29T06:12:08.462Z,29.40
2017-11-29T06:14:36.039Z,24.20
2017-11-29T06:17:03.644Z,23.90
2017-11-29T06:19:31.367Z,36.83
2017-11-29T06:21:59.755Z,23.87
2017-11-29T06:24:27.318Z,25.85
2017-11-29T06:26:54.895Z,26.55
2017-11-29T06:29:23.235Z,29.55
2017-11-29T06:31:50.813Z,23.38
2017-11-29T06:34:18.543Z,27.17
2017-11-29T06:36:46.116Z,26.12
2017-11-29T06:39:13.716Z,30.90
2017-11-29T06:41:41.284Z,29.33
2017-11-29T06:44:08.845Z,28.40
2017-11-29T06:46:37.209Z,36.92
2017-11-29T06:49:05.573Z,33.25
2017-11-29T06:51:33.157Z,29.12
2017-11-29T06:54:01.530Z,33.95
2017-11-29T06:56:29.104Z,29.15
2017-11-29T06:58:56.696Z,31.52
2017-11-29T07:01:24.364Z,30.40
2017-11-29T07:03:52.056Z,28.70
2017-11-29T07:06:19.726Z,30.92
2017-11-29T07:08:47.301Z,29.80
2017-11-29T07:11:14.883Z,31.10
2017-11-29T07:13:42.469Z,29.27
2017-11-29T07:16:10.815Z,26.65
2017-11-29T07:18:38.385Z,31.50
2017-11-29T07:21:05.948Z,28.87
2017-11-29T07:23:34.310Z,27.15
2017-11-29T07:26:02.151Z,33.17
2017-11-29T07:28:29.727Z,35.65
2017-11-29T07:30:57.318Z,30.67
2017-11-29T07:33:24.896Z,31.92
2017-11-29T07:35:53.345Z,36.72
2017-11-29T07:38:21.692Z,30.02
2017-11-29T07:40:49.287Z,32.72
2017-11-29T07:43:16.873Z,41.22
2017-11-29T07:45:45.215Z,32.33
2017-11-29T07:48:12.804Z,32.88
2017-11-29T07:50:40.377Z,29.27
2017-11-29T07:53:08.733Z,31.65
2017-11-29T07:55:36.468Z,30.85
2017-11-29T07:58:04.028Z,29.48
2017-11-29T08:00:31.612Z,31.12
2017-11-29T08:02:59.169Z,31.50
2017-11-29T08:05:26.752Z,29.90
2017-11-29T08:07:54.316Z,30.98
2017-11-29T08:10:21.891Z,31.95
2017-11-29T08:12:50.252Z,27.73
2017-11-29T08:15:17.873Z,25.40
2017-11-29T08:17:45.431Z,31.52
2017-11-29T08:20:13.049Z,27.42
2017-11-29T08:22:40.631Z,28.92
2017-11-29T08:25:08.247Z,38.17
2017-11-29T08:27:35.799Z,32.05
2017-11-29T08:30:03.376Z,29.42
2017-11-29T08:32:30.961Z,28.23
2017-11-29T08:34:59.318Z,28.02
2017-11-29T08:37:26.883Z,31.35
2017-11-29T08:39:54.464Z,24.12
2017-11-29T08:42:22.040Z,33.58
2017-11-29T08:44:50.450Z,22.87
2017-11-29T08:47:17.975Z,24.48
2017-11-29T08:49:46.312Z,24.58
2017-11-29T08:52:13.892Z,22.00
2017-11-29T08:54:42.011Z,23.90
2017-11-29T08:57:09.568Z,23.08
2017-11-29T08:59:37.139Z,24.30
2017-11-29T09:02:04.704Z,23.90
2017-11-29T09:04:32.841Z,21.10
2017-11-29T09:07:00.432Z,22.45
2017-11-29T09:09:28.017Z,19.77
2017-11-29T09:11:55.663Z,21.77
2017-11-29T09:14:23.213Z,22.52
2017-11-29T09:16:51.549Z,21.37
2017-11-29T09:19:19.115Z,20.52
2017-11-29T09:21:46.662Z,23.83
2017-11-29T09:24:14.219Z,22.83
2017-11-29T09:26:41.794Z,24.55
2017-11-29T09:29:09.627Z,22.48
2017-11-29T09:31:37.188Z,20.35
2017-11-29T09:34:04.757Z,24.45
2017-11-29T09:36:32.359Z,21.83
2017-11-29T09:39:00.787Z,18.77
2017-11-29T09:41:28.361Z,19.73
2017-11-29T09:43:55.929Z,21.83
2017-11-29T09:46:23.510Z,23.48
2017-11-29T09:48:51.096Z,24.50
2017-11-29T09:51:18.662Z,14.90
2017-11-29T09:53:47.016Z,19.25
2017-11-29T09:56:14.728Z,19.52
2017-11-29T09:58:42.421Z,18.85
2017-11-29T10:01:10.004Z,14.23
2017-11-29T10:03:37.595Z,11.73
2017-11-29T10:06:05.899Z,15.07
2017-11-29T10:08:33.535Z,14.87
2017-11-29T10:11:01.109Z,11.48
2017-11-29T10:13:29.454Z,14.98
2017-11-29T10:15:57.050Z,13.10
2017-11-29T10:18:25.427Z,12.35
2017-11-29T10:20:53.783Z,9.57
2017-11-29T10:23:21.408Z,8.20
2017-11-29T10:25:49.013Z,13.55
2017-11-29T10:28:16.589Z,13.77
2017-11-29T10:30:44.938Z,9.05
2017-11-29T10:33:12.538Z,10.52
2017-11-29T10:35:40.280Z,9.83
2017-11-29T10:38:07.826Z,7.20
2017-11-29T10:40:36.148Z,10.60
2017-11-29T10:43:03.713Z,9.30
2017-11-29T10:45:31.263Z,9.43
2017-11-29T10:47:58.835Z,9.23
2017-11-29T10:50:26.388Z,11.80
2017-11-29T10:52:54.030Z,8.40
2017-11-29T10:55:22.338Z,10.30
2017-11-29T10:57:49.897Z,8.33
2017-11-29T11:00:25.238Z,6.30
2017-11-29T11:02:52.845Z,7.97
2017-11-29T11:05:20.563Z,9.00
2017-11-29T11:07:48.163Z,7.23
2017-11-29T11:10:15.701Z,9.60
2017-11-29T11:12:43.251Z,6.50
2017-11-29T11:15:10.808Z,8.43
2017-11-29T11:17:38.401Z,10.80
2017-11-29T11:20:05.974Z,11.03
2017-11-29T11:22:33.805Z,6.37
2017-11-29T11:25:01.474Z,8.43
2017-11-29T11:27:29.013Z,6.60
2017-11-29T11:29:56.565Z,11.20
2017-11-29T11:32:25.032Z,7.93
2017-11-29T11:34:53.335Z,16.53
2017-11-29T11:37:20.912Z,10.00
2017-11-29T11:39:48.483Z,6.60
2017-11-29T11:42:16.057Z,7.83
2017-11-29T11:44:43.938Z,5.80
2017-11-29T11:47:11.525Z,9.13
2017-11-29T11:49:39.856Z,6.53
2017-11-29T11:52:07.516Z,6.70
2017-11-29T11:54:35.086Z,7.20
2017-11-29T11:57:02.664Z,6.83
2017-11-29T11:59:30.365Z,8.17
2017-11-29T12:01:58.722Z,6.30
2017-11-29T12:04:26.538Z,8.23
2017-11-29T12:06:54.143Z,7.50
2017-11-29T12:09:21.752Z,9.80
2017-11-29T12:11:49.334Z,9.40
2017-11-29T12:14:16.883Z,6.83
2017-11-29T12:16:44.455Z,7.40
2017-11-29T12:19:12.077Z,7.67
2017-11-29T12:21:39.864Z,7.07
2017-11-29T12:24:07.430Z,7.47
2017-11-29T12:26:35.060Z,7.90
2017-11-29T12:29:03.398Z,9.83
2017-11-29T12:31:30.988Z,7.13
2017-11-29T12:33:58.539Z,8.75
2017-11-29T12:36:26.277Z,7.78
2017-11-29T12:38:53.837Z,8.02
2017-11-29T12:41:21.416Z,11.00
2017-11-29T12:43:48.967Z,10.00
2017-11-29T12:46:16.597Z,7.47
2017-11-29T12:51:48.477Z,8.03
2017-11-29T12:54:16.814Z,9.67
2017-11-29T12:56:44.384Z,7.13
2017-11-29T12:59:11.954Z,8.00
2017-11-29T13:01:39.591Z,9.67
2017-11-29T13:04:07.154Z,8.10
2017-11-29T13:06:34.699Z,9.97
2017-11-29T13:09:02.257Z,8.60
2017-11-29T13:11:29.885Z,7.00
2017-11-29T13:13:57.500Z,6.90
2017-11-29T13:16:25.048Z,9.00
2017-11-29T13:18:52.637Z,6.80
2017-11-29T13:21:21.008Z,8.57
2017-11-29T13:23:48.599Z,10.10
2017-11-29T13:26:16.912Z,10.13
2017-11-29T13:28:44.544Z,7.43
2017-11-29T13:31:12.865Z,11.63
2017-11-29T13:33:40.411Z,6.87
2017-11-29T13:36:07.992Z,9.80
2017-11-29T13:38:35.590Z,11.97
2017-11-29T13:41:03.143Z,9.90
2017-11-29T13:43:30.686Z,9.18
2017-11-29T13:45:58.311Z,7.55
2017-11-29T13:48:25.883Z,8.30
2017-11-29T13:50:53.504Z,8.07
2017-11-29T13:53:21.147Z,12.02
2017-11-29T13:55:48.765Z,11.12
2017-11-29T13:58:16.340Z,9.90
2017-11-29T14:00:43.991Z,12.35
2017-11-29T14:03:11.642Z,12.60
2017-11-29T14:05:39.602Z,9.52
2017-11-29T14:08:18.832Z,10.50
2017-11-29T14:10:46.783Z,11.30
2017-11-29T14:13:14.368Z,11.73
2017-11-29T14:15:42.235Z,13.90
2017-11-29T14:18:09.839Z,8.75
2017-11-29T14:20:37.384Z,12.75
2017-11-29T14:23:05.258Z,15.77
2017-11-29T14:25:33.057Z,10.70
2017-11-29T14:28:00.728Z,13.82
2017-11-29T14:30:29.584Z,8.82
2017-11-29T14:32:58.166Z,14.73
2017-11-29T14:35:25.924Z,12.75
2017-11-29T14:37:53.631Z,8.95
2017-11-29T14:40:21.282Z,11.70
2017-11-29T14:42:50.245Z,11.75
2017-11-29T14:45:17.964Z,11.98
2017-11-29T14:47:46.556Z,9.48
2017-11-29T14:50:14.272Z,11.80
2017-11-29T14:52:45.909Z,17.55
2017-11-29T14:55:13.623Z,14.68
2017-11-29T14:57:41.239Z,13.27
2017-11-29T15:00:08.816Z,14.70
2017-11-29T15:02:36.396Z,11.00
2017-11-29T15:05:04.735Z,11.90
2017-11-29T15:07:32.433Z,10.45
2017-11-29T15:10:01.001Z,9.95
2017-11-29T15:12:28.583Z,9.60
2017-11-29T15:14:56.945Z,10.52
2017-11-29T15:17:24.545Z,12.68
2017-11-29T15:19:52.104Z,9.43
2017-11-29T15:22:19.779Z,13.43
2017-11-29T15:24:47.396Z,11.55
2017-11-29T15:27:14.977Z,10.15
2017-11-29T15:29:43.328Z,10.80
2017-11-29T15:32:11.842Z,11.50
2017-11-29T15:34:40.158Z,10.43
2017-11-29T15:37:07.695Z,10.65
2017-11-29T15:39:36.007Z,11.80
2017-11-29T15:42:03.584Z,14.82
2017-11-29T15:44:31.944Z,10.95
2017-11-29T15:46:59.536Z,9.57
2017-11-29T15:49:27.147Z,11.48
2017-11-29T15:51:54.703Z,8.55
2017-11-29T15:54:23.060Z,9.55
2017-11-29T15:56:50.745Z,9.25
2017-11-29T15:59:19.083Z,13.88
2017-11-29T16:01:46.680Z,11.38
2017-11-29T16:04:15.020Z,7.55
2017-11-29T16:06:42.664Z,9.93
2017-11-29T16:09:10.237Z,10.73
2017-11-29T16:11:37.815Z,9.85
2017-11-29T16:14:05.435Z,9.13
2017-11-29T16:16:33.093Z,9.25
2017-11-29T16:19:01.429Z,11.80
2017-11-29T16:21:29.048Z,9.90
2017-11-29T16:23:57.411Z,9.63
2017-11-29T16:26:25.842Z,9.25
2017-11-29T16:28:53.457Z,10.60
2017-11-29T16:31:21.806Z,12.48
2017-11-29T16:33:49.355Z,13.10
2017-11-29T16:36:16.968Z,10.75
2017-11-29T16:38:44.594Z,15.35
2017-11-29T16:41:12.319Z,14.57
2017-11-29T16:43:39.905Z,17.05
2017-11-29T16:46:07.665Z,18.35
2017-11-29T16:48:35.243Z,15.77
2017-11-29T16:51:02.821Z,16.00
2017-11-29T16:53:30.403Z,18.33
2017-11-29T16:55:58.813Z,20.73
2017-11-29T16:58:26.944Z,18.87
2017-11-29T17:00:54.512Z,22.92
2017-11-29T17:03:22.884Z,15.52
2017-11-29T17:05:50.459Z,16.48
2017-11-29T17:08:18.044Z,15.88
2017-11-29T17:10:46.476Z,18.15
2017-11-29T17:13:14.054Z,18.65
2017-11-29T17:15:41.656Z,16.50
2017-11-29T17:18:09.237Z,16.52
2017-11-29T17:20:36.833Z,26.67
2017-11-29T17:23:04.411Z,23.02
2017-11-29T17:25:31.995Z,24.02
2017-11-29T17:28:00.292Z,19.87
2017-11-29T17:30:29.579Z,17.65
2017-11-29T17:32:57.905Z,30.60
2017-11-29T17:35:25.463Z,19.40
2017-11-29T17:37:53.086Z,19.40
2017-11-29T17:40:21.404Z,19.33
2017-11-29T17:42:49.002Z,15.70
2017-11-29T17:45:16.572Z,20.90
2017-11-29T17:47:44.931Z,17.45
2017-11-29T17:50:12.532Z,15.32
2017-11-29T17:52:40.099Z,22.00
2017-11-29T17:55:07.820Z,14.68
2017-11-29T17:57:35.471Z,20.12
2017-11-29T18:00:03.045Z,13.20
2017-11-29T18:02:30.692Z,16.65
2017-11-29T18:04:58.242Z,27.40
2017-11-29T18:07:25.854Z,19.00
2017-11-29T18:09:54.225Z,18.73
2017-11-29T18:12:21.808Z,22.65
2017-11-29T18:14:50.175Z,23.58
2017-11-29T18:17:18.537Z,27.27
2017-11-29T18:19:46.142Z,22.20
2017-11-29T18:22:13.731Z,14.85
2017-11-29T18:24:41.281Z,20.98
2017-11-29T18:27:08.881Z,18.48
2017-11-29T18:29:36.481Z,19.27
2017-11-29T18:32:04.073Z,19.52
2017-11-29T18:34:31.682Z,26.08
2017-11-29T18:36:59.300Z,24.23
2017-11-29T18:39:26.891Z,18.58
2017-11-29T18:41:54.494Z,14.32
2017-11-29T18:44:22.094Z,19.70
2017-11-29T18:46:49.672Z,12.20
2017-11-29T18:49:17.275Z,18.35
2017-11-29T18:51:45.588Z,22.42
2017-11-29T18:54:13.182Z,19.85
2017-11-29T18:56:40.795Z,19.05
2017-11-29T18:59:08.378Z,12.75
2017-11-29T19:01:35.981Z,14.05
2017-11-29T19:04:03.545Z,15.05
2017-11-29T19:06:31.121Z,14.18
2017-11-29T19:08:59.459Z,11.95
2017-11-29T19:11:27.051Z,10.27
2017-11-29T19:13:55.470Z,11.77
2017-11-29T19:16:23.042Z,23.40
2017-11-29T19:18:50.641Z,19.50
2017-11-29T19:21:18.206Z,16.02
2017-11-29T19:23:45.780Z,12.68
2017-11-29T19:26:14.161Z,16.83
2017-11-29T19:28:42.539Z,15.10
2017-11-29T19:31:10.168Z,16.55
2017-11-29T19:33:37.787Z,12.52
2017-11-29T19:36:06.248Z,14.95
2017-11-29T19:38:34.596Z,13.40
2017-11-29T19:41:02.170Z,11.90
2017-11-29T19:43:29.768Z,12.90
2017-11-29T19:45:58.177Z,12.13
2017-11-29T19:48:25.900Z,15.50
2017-11-29T19:50:53.518Z,15.70
2017-11-29T19:53:21.159Z,20.80
2017-11-29T19:55:48.799Z,15.15
2017-11-29T19:58:17.173Z,14.00
2017-11-29T20:00:44.764Z,14.27
2017-11-29T20:03:12.391Z,12.73
2017-11-29T20:05:39.971Z,15.55
2017-11-29T20:08:08.395Z,13.40
2017-11-29T20:10:36.221Z,13.18
2017-11-29T20:13:04.751Z,13.73
2017-11-29T20:15:32.551Z,14.73
2017-11-29T20:18:01.489Z,14.27
2017-11-29T20:20:40.602Z,14.70
2017-11-29T20:23:08.353Z,16.02
2017-11-29T20:25:36.741Z,19.17
2017-11-29T20:28:05.084Z,25.05
2017-11-29T20:30:32.944Z,16.48
2017-11-29T20:33:00.652Z,15.77
2017-11-29T20:35:39.003Z,17.02
2017-11-29T20:38:06.714Z,15.50
2017-11-29T20:40:34.411Z,16.52
2017-11-29T20:43:02.702Z,17.62
2017-11-29T20:45:30.845Z,16.08
2017-11-29T20:47:59.958Z,15.65
2017-11-29T20:50:27.757Z,19.35
2017-11-29T20:52:56.730Z,18.83
2017-11-29T20:55:25.487Z,20.05
2017-11-29T20:57:53.445Z,20.40
2017-11-29T21:00:21.499Z,20.12
2017-11-29T21:02:49.340Z,21.30
2017-11-29T21:05:17.998Z,20.17
2017-11-29T21:07:45.864Z,23.00
2017-11-29T21:10:13.693Z,20.98
2017-11-29T21:12:41.897Z,22.35
2017-11-29T21:15:09.596Z,20.80
2017-11-29T21:17:37.296Z,24.90
2017-11-29T21:20:04.853Z,21.62
2017-11-29T21:22:32.463Z,22.10
2017-11-29T21:25:00.868Z,25.95
2017-11-29T21:27:29.278Z,21.15
2017-11-29T21:29:57.108Z,24.77
2017-11-29T21:32:25.536Z,22.40
2017-11-29T21:34:53.176Z,18.87
2017-11-29T21:37:21.567Z,23.95
2017-11-29T21:39:49.206Z,23.38
2017-11-29T21:42:17.603Z,24.48
2017-11-29T21:44:45.931Z,30.58
2017-11-29T21:47:13.517Z,29.27
2017-11-29T21:49:41.094Z,29.50
2017-11-29T21:52:09.454Z,38.60
2017-11-29T21:54:37.152Z,36.20
2017-11-29T21:57:04.765Z,36.40
2017-11-29T21:59:32.373Z,32.45
2017-11-29T22:01:59.949Z,29.58
2017-11-29T22:04:27.597Z,37.17
2017-11-29T22:06:55.961Z,33.97
2017-11-29T22:09:23.592Z,37.30
2017-11-29T22:11:51.184Z,36.13
2017-11-29T22:14:19.565Z,44.15
2017-11-29T22:16:47.167Z,37.92
2017-11-29T22:19:14.806Z,35.50
2017-11-29T22:21:43.140Z,37.33
2017-11-29T22:24:11.486Z,38.53
2017-11-29T22:26:39.084Z,40.75
2017-11-29T22:29:06.668Z,36.92
2017-11-29T22:31:34.248Z,37.53
2017-11-29T22:34:01.830Z,32.90
2017-11-29T22:36:29.419Z,35.28
2017-11-29T22:38:57.756Z,34.83
2017-11-29T22:41:25.389Z,31.27
2017-11-29T22:43:52.971Z,35.70
2017-11-29T22:46:20.551Z,34.13
2017-11-29T22:48:48.188Z,33.45
2017-11-29T22:51:15.832Z,33.97
2017-11-29T22:53:43.450Z,30.15
2017-11-29T22:56:11.132Z,29.67
2017-11-29T22:58:39.484Z,29.48
2017-11-29T23:01:07.116Z,29.85
2017-11-29T23:03:34.680Z,29.90
2017-11-29T23:06:02.245Z,38.08
2017-11-29T23:08:29.906Z,30.92
2017-11-29T23:10:57.489Z,28.87
2017-11-29T23:13:25.333Z,32.15
2017-11-29T23:15:52.921Z,26.73
2017-11-29T23:18:20.499Z,32.42
2017-11-29T23:20:48.735Z,31.73
2017-11-29T23:23:16.305Z,28.33
2017-11-29T23:25:43.914Z,29.70
2017-11-29T23:28:12.266Z,29.83
2017-11-29T23:30:39.871Z,30.85
2017-11-29T23:33:08.209Z,34.55
2017-11-29T23:35:35.821Z,34.30
2017-11-29T23:38:03.357Z,33.00
2017-11-29T23:40:31.718Z,27.75
2017-11-29T23:42:59.426Z,27.85
2017-11-29T23:45:27.414Z,34.00
2017-11-29T23:47:55.029Z,32.55
2017-11-29T23:50:22.592Z,28.98
2017-11-29T23:52:50.174Z,33.90
2017-11-29T23:55:17.731Z,28.10
2017-11-29T23:57:46.065Z,27.80
